sensor_id;sensor_type;location;lat;lon;timestamp;P1;durP1;ratioP1;P2;durP2;ratioP2
46551;SDS011;32278;51.810;4.712;2024-01-10T00:01:27;5.28;;;3.60;;
46551;SDS011;32278;51.810;4.712;2024-01-10T00:03:53;9.88;;;3.20;;
46551;SDS011;32278;51.810;4.712;2024-01-10T00:06:19;6.20;;;2.65;;
46551;SDS011;32278;51.810;4.712;2024-01-10T00:08:45;4.35;;;2.67;;
46551;SDS011;32278;51.810;4.712;2024-01-10T00:11:11;5.55;;;2.83;;
46551;SDS011;32278;51.810;4.712;2024-01-10T00:13:37;4.95;;;3.50;;
46551;SDS011;32278;51.810;4.712;2024-01-10T00:16:03;5.13;;;3.42;;
46551;SDS011;32278;51.810;4.712;2024-01-10T00:18:29;6.25;;;3.30;;
46551;SDS011;32278;51.810;4.712;2024-01-10T00:20:55;6.43;;;3.10;;
46551;SDS011;32278;51.810;4.712;2024-01-10T00:23:21;5.70;;;3.00;;
46551;SDS011;32278;51.810;4.712;2024-01-10T00:25:48;7.25;;;3.58;;
46551;SDS011;32278;51.810;4.712;2024-01-10T00:28:14;5.22;;;2.58;;
46551;SDS011;32278;51.810;4.712;2024-01-10T00:30:44;6.10;;;2.80;;
46551;SDS011;32278;51.810;4.712;2024-01-10T00:33:10;8.82;;;3.50;;
46551;SDS011;32278;51.810;4.712;2024-01-10T00:35:39;5.97;;;3.03;;
46551;SDS011;32278;51.810;4.712;2024-01-10T00:38:05;4.03;;;2.75;;
46551;SDS011;32278;51.810;4.712;2024-01-10T00:40:31;5.95;;;2.58;;
46551;SDS011;32278;51.810;4.712;2024-01-10T00:42:57;5.32;;;2.95;;
46551;SDS011;32278;51.810;4.712;2024-01-10T00:45:24;3.70;;;2.70;;
46551;SDS011;32278;51.810;4.712;2024-01-10T00:47:50;4.68;;;2.90;;
46551;SDS011;32278;51.810;4.712;2024-01-10T00:50:16;4.75;;;3.10;;
46551;SDS011;32278;51.810;4.712;2024-01-10T00:52:43;6.25;;;3.13;;
46551;SDS011;32278;51.810;4.712;2024-01-10T00:55:09;4.53;;;2.67;;
46551;SDS011;32278;51.810;4.712;2024-01-10T00:57:35;5.05;;;3.30;;
46551;SDS011;32278;51.810;4.712;2024-01-10T01:00:03;7.28;;;3.40;;
46551;SDS011;32278;51.810;4.712;2024-01-10T01:02:29;5.53;;;3.33;;
46551;SDS011;32278;51.810;4.712;2024-01-10T01:04:55;5.97;;;3.47;;
46551;SDS011;32278;51.810;4.712;2024-01-10T01:07:21;4.22;;;2.60;;
46551;SDS011;32278;51.810;4.712;2024-01-10T01:09:47;6.68;;;3.85;;
46551;SDS011;32278;51.810;4.712;2024-01-10T01:12:13;6.90;;;3.05;;
46551;SDS011;32278;51.810;4.712;2024-01-10T01:14:39;6.35;;;3.20;;
46551;SDS011;32278;51.810;4.712;2024-01-10T01:17:05;5.80;;;3.42;;
46551;SDS011;32278;51.810;4.712;2024-01-10T01:19:31;6.07;;;3.42;;
46551;SDS011;32278;51.810;4.712;2024-01-10T01:21:57;8.27;;;3.28;;
46551;SDS011;32278;51.810;4.712;2024-01-10T01:24:23;7.93;;;3.72;;
46551;SDS011;32278;51.810;4.712;2024-01-10T01:26:49;6.15;;;3.10;;
46551;SDS011;32278;51.810;4.712;2024-01-10T01:29:15;6.47;;;3.40;;
46551;SDS011;32278;51.810;4.712;2024-01-10T01:31:41;10.55;;;3.30;;
46551;SDS011;32278;51.810;4.712;2024-01-10T01:34:07;10.10;;;3.90;;
46551;SDS011;32278;51.810;4.712;2024-01-10T01:36:33;7.18;;;3.60;;
46551;SDS011;32278;51.810;4.712;2024-01-10T01:38:59;5.97;;;3.40;;
46551;SDS011;32278;51.810;4.712;2024-01-10T01:41:25;6.93;;;4.45;;
46551;SDS011;32278;51.810;4.712;2024-01-10T01:43:51;4.45;;;3.25;;
46551;SDS011;32278;51.810;4.712;2024-01-10T01:46:17;9.13;;;3.33;;
46551;SDS011;32278;51.810;4.712;2024-01-10T01:48:43;8.25;;;3.47;;
46551;SDS011;32278;51.810;4.712;2024-01-10T01:51:10;6.30;;;3.53;;
46551;SDS011;32278;51.810;4.712;2024-01-10T01:53:38;6.50;;;3.38;;
46551;SDS011;32278;51.810;4.712;2024-01-10T01:56:07;6.53;;;3.70;;
46551;SDS011;32278;51.810;4.712;2024-01-10T01:58:34;9.35;;;3.60;;
46551;SDS011;32278;51.810;4.712;2024-01-10T02:01:01;5.72;;;3.17;;
46551;SDS011;32278;51.810;4.712;2024-01-10T02:03:28;4.35;;;2.97;;
46551;SDS011;32278;51.810;4.712;2024-01-10T02:05:54;7.28;;;3.53;;
46551;SDS011;32278;51.810;4.712;2024-01-10T02:08:20;10.65;;;3.20;;
46551;SDS011;32278;51.810;4.712;2024-01-10T02:10:46;6.30;;;3.88;;
46551;SDS011;32278;51.810;4.712;2024-01-10T02:13:12;6.30;;;3.45;;
46551;SDS011;32278;51.810;4.712;2024-01-10T02:15:38;6.15;;;3.38;;
46551;SDS011;32278;51.810;4.712;2024-01-10T02:18:04;5.07;;;3.25;;
46551;SDS011;32278;51.810;4.712;2024-01-10T02:20:31;7.70;;;3.80;;
46551;SDS011;32278;51.810;4.712;2024-01-10T02:22:57;6.95;;;3.53;;
46551;SDS011;32278;51.810;4.712;2024-01-10T02:25:23;9.30;;;3.90;;
46551;SDS011;32278;51.810;4.712;2024-01-10T02:27:49;7.05;;;3.30;;
46551;SDS011;32278;51.810;4.712;2024-01-10T02:30:15;6.72;;;3.60;;
46551;SDS011;32278;51.810;4.712;2024-01-10T02:32:41;6.88;;;4.05;;
46551;SDS011;32278;51.810;4.712;2024-01-10T02:35:07;6.45;;;3.97;;
46551;SDS011;32278;51.810;4.712;2024-01-10T02:37:33;6.82;;;3.58;;
46551;SDS011;32278;51.810;4.712;2024-01-10T02:39:59;6.35;;;3.65;;
46551;SDS011;32278;51.810;4.712;2024-01-10T02:42:28;8.10;;;3.38;;
46551;SDS011;32278;51.810;4.712;2024-01-10T02:44:55;5.50;;;3.10;;
46551;SDS011;32278;51.810;4.712;2024-01-10T02:47:21;7.88;;;3.85;;
46551;SDS011;32278;51.810;4.712;2024-01-10T02:49:47;6.38;;;3.53;;
46551;SDS011;32278;51.810;4.712;2024-01-10T02:52:13;5.60;;;3.35;;
46551;SDS011;32278;51.810;4.712;2024-01-10T02:54:39;4.47;;;3.30;;
46551;SDS011;32278;51.810;4.712;2024-01-10T02:57:05;9.02;;;4.10;;
46551;SDS011;32278;51.810;4.712;2024-01-10T02:59:31;6.85;;;4.40;;
46551;SDS011;32278;51.810;4.712;2024-01-10T03:01:57;6.32;;;3.70;;
46551;SDS011;32278;51.810;4.712;2024-01-10T03:04:23;6.97;;;3.58;;
46551;SDS011;32278;51.810;4.712;2024-01-10T03:06:49;7.38;;;3.80;;
46551;SDS011;32278;51.810;4.712;2024-01-10T03:09:15;8.32;;;4.10;;
46551;SDS011;32278;51.810;4.712;2024-01-10T03:11:41;5.57;;;3.45;;
46551;SDS011;32278;51.810;4.712;2024-01-10T03:14:08;8.63;;;3.70;;
46551;SDS011;32278;51.810;4.712;2024-01-10T03:16:34;7.57;;;3.75;;
46551;SDS011;32278;51.810;4.712;2024-01-10T03:19:00;8.93;;;4.20;;
46551;SDS011;32278;51.810;4.712;2024-01-10T03:21:26;9.05;;;3.78;;
46551;SDS011;32278;51.810;4.712;2024-01-10T03:23:55;10.15;;;4.57;;
46551;SDS011;32278;51.810;4.712;2024-01-10T03:26:22;9.20;;;3.70;;
46551;SDS011;32278;51.810;4.712;2024-01-10T03:28:48;6.68;;;4.13;;
46551;SDS011;32278;51.810;4.712;2024-01-10T03:31:14;6.47;;;3.63;;
46551;SDS011;32278;51.810;4.712;2024-01-10T03:33:40;5.65;;;3.35;;
46551;SDS011;32278;51.810;4.712;2024-01-10T03:36:06;9.65;;;4.22;;
46551;SDS011;32278;51.810;4.712;2024-01-10T03:38:32;8.82;;;3.58;;
46551;SDS011;32278;51.810;4.712;2024-01-10T03:40:58;7.53;;;4.00;;
46551;SDS011;32278;51.810;4.712;2024-01-10T03:43:24;5.93;;;3.45;;
46551;SDS011;32278;51.810;4.712;2024-01-10T03:45:50;11.15;;;4.45;;
46551;SDS011;32278;51.810;4.712;2024-01-10T03:48:16;7.30;;;4.05;;
46551;SDS011;32278;51.810;4.712;2024-01-10T03:50:42;5.45;;;3.70;;
46551;SDS011;32278;51.810;4.712;2024-01-10T03:53:08;5.80;;;3.92;;
46551;SDS011;32278;51.810;4.712;2024-01-10T03:55:34;7.10;;;4.05;;
46551;SDS011;32278;51.810;4.712;2024-01-10T03:58:00;6.78;;;4.28;;
46551;SDS011;32278;51.810;4.712;2024-01-10T04:00:26;7.38;;;3.88;;
46551;SDS011;32278;51.810;4.712;2024-01-10T04:02:53;5.45;;;3.92;;
46551;SDS011;32278;51.810;4.712;2024-01-10T04:05:19;10.18;;;4.50;;
46551;SDS011;32278;51.810;4.712;2024-01-10T04:07:45;7.32;;;4.15;;
46551;SDS011;32278;51.810;4.712;2024-01-10T04:10:12;9.30;;;4.35;;
46551;SDS011;32278;51.810;4.712;2024-01-10T04:12:44;7.22;;;4.05;;
46551;SDS011;32278;51.810;4.712;2024-01-10T04:15:11;8.45;;;4.13;;
46551;SDS011;32278;51.810;4.712;2024-01-10T04:17:37;5.53;;;3.70;;
46551;SDS011;32278;51.810;4.712;2024-01-10T04:20:04;7.40;;;4.38;;
46551;SDS011;32278;51.810;4.712;2024-01-10T04:22:30;7.25;;;4.18;;
46551;SDS011;32278;51.810;4.712;2024-01-10T04:24:57;8.10;;;4.20;;
46551;SDS011;32278;51.810;4.712;2024-01-10T04:27:23;11.52;;;4.07;;
46551;SDS011;32278;51.810;4.712;2024-01-10T04:29:49;7.45;;;4.22;;
46551;SDS011;32278;51.810;4.712;2024-01-10T04:32:15;7.35;;;4.20;;
46551;SDS011;32278;51.810;4.712;2024-01-10T04:34:41;8.43;;;4.57;;
46551;SDS011;32278;51.810;4.712;2024-01-10T04:37:07;6.63;;;4.22;;
46551;SDS011;32278;51.810;4.712;2024-01-10T04:39:33;8.40;;;4.65;;
46551;SDS011;32278;51.810;4.712;2024-01-10T04:42:00;9.40;;;4.05;;
46551;SDS011;32278;51.810;4.712;2024-01-10T04:44:26;11.40;;;4.53;;
46551;SDS011;32278;51.810;4.712;2024-01-10T04:46:52;8.98;;;4.07;;
46551;SDS011;32278;51.810;4.712;2024-01-10T04:49:17;7.22;;;4.28;;
46551;SDS011;32278;51.810;4.712;2024-01-10T04:51:44;12.05;;;4.72;;
46551;SDS011;32278;51.810;4.712;2024-01-10T04:54:10;6.85;;;4.53;;
46551;SDS011;32278;51.810;4.712;2024-01-10T04:56:36;6.43;;;3.67;;
46551;SDS011;32278;51.810;4.712;2024-01-10T04:59:02;6.63;;;3.67;;
46551;SDS011;32278;51.810;4.712;2024-01-10T05:01:28;8.30;;;4.47;;
46551;SDS011;32278;51.810;4.712;2024-01-10T05:03:55;6.57;;;4.32;;
46551;SDS011;32278;51.810;4.712;2024-01-10T05:06:21;10.25;;;5.47;;
46551;SDS011;32278;51.810;4.712;2024-01-10T05:08:47;9.10;;;4.68;;
46551;SDS011;32278;51.810;4.712;2024-01-10T05:11:12;7.10;;;4.63;;
46551;SDS011;32278;51.810;4.712;2024-01-10T05:13:39;8.55;;;4.63;;
46551;SDS011;32278;51.810;4.712;2024-01-10T05:16:05;8.93;;;4.70;;
46551;SDS011;32278;51.810;4.712;2024-01-10T05:18:31;8.55;;;4.05;;
46551;SDS011;32278;51.810;4.712;2024-01-10T05:20:58;7.82;;;4.63;;
46551;SDS011;32278;51.810;4.712;2024-01-10T05:23:24;7.90;;;4.40;;
46551;SDS011;32278;51.810;4.712;2024-01-10T05:25:50;10.85;;;4.78;;
46551;SDS011;32278;51.810;4.712;2024-01-10T05:28:16;8.43;;;4.90;;
46551;SDS011;32278;51.810;4.712;2024-01-10T05:30:42;8.15;;;5.50;;
46551;SDS011;32278;51.810;4.712;2024-01-10T05:33:09;9.73;;;4.78;;
46551;SDS011;32278;51.810;4.712;2024-01-10T05:35:35;7.95;;;4.30;;
46551;SDS011;32278;51.810;4.712;2024-01-10T05:38:01;7.07;;;4.22;;
46551;SDS011;32278;51.810;4.712;2024-01-10T05:40:28;10.07;;;5.20;;
46551;SDS011;32278;51.810;4.712;2024-01-10T05:42:57;7.38;;;4.22;;
46551;SDS011;32278;51.810;4.712;2024-01-10T05:45:26;8.48;;;4.93;;
46551;SDS011;32278;51.810;4.712;2024-01-10T05:47:53;7.18;;;4.45;;
46551;SDS011;32278;51.810;4.712;2024-01-10T05:50:19;7.82;;;4.65;;
46551;SDS011;32278;51.810;4.712;2024-01-10T05:52:45;8.13;;;5.22;;
46551;SDS011;32278;51.810;4.712;2024-01-10T05:55:11;11.27;;;4.97;;
46551;SDS011;32278;51.810;4.712;2024-01-10T05:57:37;11.68;;;5.65;;
46551;SDS011;32278;51.810;4.712;2024-01-10T06:00:03;8.07;;;4.50;;
46551;SDS011;32278;51.810;4.712;2024-01-10T06:02:34;8.93;;;4.55;;
46551;SDS011;32278;51.810;4.712;2024-01-10T06:05:00;12.75;;;5.03;;
46551;SDS011;32278;51.810;4.712;2024-01-10T06:07:30;9.43;;;4.80;;
46551;SDS011;32278;51.810;4.712;2024-01-10T06:09:56;8.00;;;5.00;;
46551;SDS011;32278;51.810;4.712;2024-01-10T06:12:22;9.57;;;5.20;;
46551;SDS011;32278;51.810;4.712;2024-01-10T06:14:48;8.27;;;4.75;;
46551;SDS011;32278;51.810;4.712;2024-01-10T06:17:14;10.48;;;4.88;;
46551;SDS011;32278;51.810;4.712;2024-01-10T06:19:42;9.90;;;4.85;;
46551;SDS011;32278;51.810;4.712;2024-01-10T06:22:08;10.77;;;5.45;;
46551;SDS011;32278;51.810;4.712;2024-01-10T06:24:33;8.35;;;4.90;;
46551;SDS011;32278;51.810;4.712;2024-01-10T06:26:59;8.52;;;4.90;;
46551;SDS011;32278;51.810;4.712;2024-01-10T06:29:25;11.68;;;5.28;;
46551;SDS011;32278;51.810;4.712;2024-01-10T06:31:51;9.85;;;5.00;;
46551;SDS011;32278;51.810;4.712;2024-01-10T06:34:18;10.30;;;4.80;;
46551;SDS011;32278;51.810;4.712;2024-01-10T06:36:44;10.00;;;5.43;;
46551;SDS011;32278;51.810;4.712;2024-01-10T06:39:10;12.23;;;5.00;;
46551;SDS011;32278;51.810;4.712;2024-01-10T06:41:37;9.30;;;5.53;;
46551;SDS011;32278;51.810;4.712;2024-01-10T06:44:03;10.15;;;4.82;;
46551;SDS011;32278;51.810;4.712;2024-01-10T06:46:30;13.77;;;6.85;;
46551;SDS011;32278;51.810;4.712;2024-01-10T06:48:57;11.88;;;5.68;;
46551;SDS011;32278;51.810;4.712;2024-01-10T06:51:24;11.77;;;4.88;;
46551;SDS011;32278;51.810;4.712;2024-01-10T06:53:51;10.85;;;5.40;;
46551;SDS011;32278;51.810;4.712;2024-01-10T06:56:17;12.85;;;4.85;;
46551;SDS011;32278;51.810;4.712;2024-01-10T06:58:44;10.32;;;4.90;;
46551;SDS011;32278;51.810;4.712;2024-01-10T07:01:13;10.43;;;5.38;;
46551;SDS011;32278;51.810;4.712;2024-01-10T07:03:39;9.70;;;5.05;;
46551;SDS011;32278;51.810;4.712;2024-01-10T07:06:05;9.07;;;5.63;;
46551;SDS011;32278;51.810;4.712;2024-01-10T07:08:31;9.63;;;5.13;;
46551;SDS011;32278;51.810;4.712;2024-01-10T07:10:57;8.65;;;5.00;;
46551;SDS011;32278;51.810;4.712;2024-01-10T07:13:23;10.05;;;4.95;;
46551;SDS011;32278;51.810;4.712;2024-01-10T07:15:49;13.15;;;6.35;;
46551;SDS011;32278;51.810;4.712;2024-01-10T07:18:17;9.27;;;5.18;;
46551;SDS011;32278;51.810;4.712;2024-01-10T07:20:43;10.32;;;5.30;;
46551;SDS011;32278;51.810;4.712;2024-01-10T07:23:09;11.10;;;5.55;;
46551;SDS011;32278;51.810;4.712;2024-01-10T07:25:35;13.68;;;5.20;;
46551;SDS011;32278;51.810;4.712;2024-01-10T07:28:02;7.53;;;4.80;;
46551;SDS011;32278;51.810;4.712;2024-01-10T07:30:28;9.77;;;5.20;;
46551;SDS011;32278;51.810;4.712;2024-01-10T07:32:58;9.93;;;5.30;;
46551;SDS011;32278;51.810;4.712;2024-01-10T07:35:25;11.32;;;5.35;;
46551;SDS011;32278;51.810;4.712;2024-01-10T07:37:52;9.70;;;5.13;;
46551;SDS011;32278;51.810;4.712;2024-01-10T07:40:18;10.48;;;5.05;;
46551;SDS011;32278;51.810;4.712;2024-01-10T07:42:44;10.38;;;5.03;;
46551;SDS011;32278;51.810;4.712;2024-01-10T07:45:10;9.50;;;5.50;;
46551;SDS011;32278;51.810;4.712;2024-01-10T07:47:37;10.18;;;5.43;;
46551;SDS011;32278;51.810;4.712;2024-01-10T07:50:06;8.38;;;4.60;;
46551;SDS011;32278;51.810;4.712;2024-01-10T07:52:33;9.25;;;5.15;;
46551;SDS011;32278;51.810;4.712;2024-01-10T07:54:59;9.98;;;5.22;;
46551;SDS011;32278;51.810;4.712;2024-01-10T07:57:25;11.60;;;5.20;;
46551;SDS011;32278;51.810;4.712;2024-01-10T07:59:52;9.90;;;5.65;;
46551;SDS011;32278;51.810;4.712;2024-01-10T08:02:18;9.90;;;5.45;;
46551;SDS011;32278;51.810;4.712;2024-01-10T08:04:44;16.05;;;6.57;;
46551;SDS011;32278;51.810;4.712;2024-01-10T08:07:10;8.82;;;5.57;;
46551;SDS011;32278;51.810;4.712;2024-01-10T08:09:36;9.80;;;5.35;;
46551;SDS011;32278;51.810;4.712;2024-01-10T08:12:02;9.07;;;5.22;;
46551;SDS011;32278;51.810;4.712;2024-01-10T08:14:28;11.88;;;5.60;;
46551;SDS011;32278;51.810;4.712;2024-01-10T08:16:54;10.00;;;5.40;;
46551;SDS011;32278;51.810;4.712;2024-01-10T08:19:23;11.95;;;5.68;;
46551;SDS011;32278;51.810;4.712;2024-01-10T08:21:50;11.90;;;6.55;;
46551;SDS011;32278;51.810;4.712;2024-01-10T08:24:16;9.90;;;5.68;;
46551;SDS011;32278;51.810;4.712;2024-01-10T08:26:42;13.50;;;6.00;;
46551;SDS011;32278;51.810;4.712;2024-01-10T08:29:08;11.75;;;5.93;;
46551;SDS011;32278;51.810;4.712;2024-01-10T08:31:34;10.55;;;5.65;;
46551;SDS011;32278;51.810;4.712;2024-01-10T08:34:00;13.27;;;6.90;;
46551;SDS011;32278;51.810;4.712;2024-01-10T08:36:26;12.50;;;6.97;;
46551;SDS011;32278;51.810;4.712;2024-01-10T08:38:52;14.02;;;6.60;;
46551;SDS011;32278;51.810;4.712;2024-01-10T08:41:18;12.00;;;6.28;;
46551;SDS011;32278;51.810;4.712;2024-01-10T08:43:45;9.25;;;5.93;;
46551;SDS011;32278;51.810;4.712;2024-01-10T08:46:11;13.57;;;6.72;;
46551;SDS011;32278;51.810;4.712;2024-01-10T08:48:37;8.48;;;5.60;;
46551;SDS011;32278;51.810;4.712;2024-01-10T08:51:03;13.27;;;6.80;;
46551;SDS011;32278;51.810;4.712;2024-01-10T08:53:29;10.48;;;6.15;;
46551;SDS011;32278;51.810;4.712;2024-01-10T08:55:55;14.48;;;6.68;;
46551;SDS011;32278;51.810;4.712;2024-01-10T08:58:21;11.35;;;6.68;;
46551;SDS011;32278;51.810;4.712;2024-01-10T09:00:47;10.63;;;6.28;;
46551;SDS011;32278;51.810;4.712;2024-01-10T09:03:13;13.93;;;7.40;;
46551;SDS011;32278;51.810;4.712;2024-01-10T09:05:39;14.45;;;6.65;;
46551;SDS011;32278;51.810;4.712;2024-01-10T09:08:05;11.32;;;6.47;;
46551;SDS011;32278;51.810;4.712;2024-01-10T09:10:31;12.00;;;6.97;;
46551;SDS011;32278;51.810;4.712;2024-01-10T09:12:58;11.25;;;6.07;;
46551;SDS011;32278;51.810;4.712;2024-01-10T09:15:24;13.68;;;6.95;;
46551;SDS011;32278;51.810;4.712;2024-01-10T09:17:50;14.25;;;6.82;;
46551;SDS011;32278;51.810;4.712;2024-01-10T09:20:17;11.40;;;7.18;;
46551;SDS011;32278;51.810;4.712;2024-01-10T09:22:43;12.52;;;6.57;;
46551;SDS011;32278;51.810;4.712;2024-01-10T09:25:09;11.20;;;6.30;;
46551;SDS011;32278;51.810;4.712;2024-01-10T09:27:38;11.52;;;6.80;;
46551;SDS011;32278;51.810;4.712;2024-01-10T09:30:09;13.43;;;7.47;;
46551;SDS011;32278;51.810;4.712;2024-01-10T09:32:35;15.07;;;6.88;;
46551;SDS011;32278;51.810;4.712;2024-01-10T09:35:01;14.63;;;7.63;;
46551;SDS011;32278;51.810;4.712;2024-01-10T09:37:27;14.57;;;7.75;;
46551;SDS011;32278;51.810;4.712;2024-01-10T09:39:53;13.88;;;7.43;;
46551;SDS011;32278;51.810;4.712;2024-01-10T09:42:22;15.43;;;6.85;;
46551;SDS011;32278;51.810;4.712;2024-01-10T09:44:50;12.48;;;7.03;;
46551;SDS011;32278;51.810;4.712;2024-01-10T09:47:17;14.15;;;7.68;;
46551;SDS011;32278;51.810;4.712;2024-01-10T09:49:43;19.40;;;7.97;;
46551;SDS011;32278;51.810;4.712;2024-01-10T09:52:11;15.85;;;8.25;;
46551;SDS011;32278;51.810;4.712;2024-01-10T09:54:42;11.90;;;6.68;;
46551;SDS011;32278;51.810;4.712;2024-01-10T09:57:11;14.18;;;7.68;;
46551;SDS011;32278;51.810;4.712;2024-01-10T09:59:38;15.50;;;8.18;;
46551;SDS011;32278;51.810;4.712;2024-01-10T10:02:04;16.88;;;7.80;;
46551;SDS011;32278;51.810;4.712;2024-01-10T10:04:30;12.93;;;7.32;;
46551;SDS011;32278;51.810;4.712;2024-01-10T10:06:59;14.48;;;7.10;;
46551;SDS011;32278;51.810;4.712;2024-01-10T10:09:28;19.55;;;8.80;;
46551;SDS011;32278;51.810;4.712;2024-01-10T10:11:55;17.45;;;8.32;;
46551;SDS011;32278;51.810;4.712;2024-01-10T10:14:22;14.43;;;8.32;;
46551;SDS011;32278;51.810;4.712;2024-01-10T10:16:51;16.98;;;8.82;;
46551;SDS011;32278;51.810;4.712;2024-01-10T10:19:23;13.68;;;8.40;;
46551;SDS011;32278;51.810;4.712;2024-01-10T10:21:50;12.48;;;7.32;;
46551;SDS011;32278;51.810;4.712;2024-01-10T10:24:16;18.42;;;8.82;;
46551;SDS011;32278;51.810;4.712;2024-01-10T10:26:42;16.73;;;8.65;;
46551;SDS011;32278;51.810;4.712;2024-01-10T10:29:08;15.80;;;8.13;;
46551;SDS011;32278;51.810;4.712;2024-01-10T10:31:35;16.80;;;7.95;;
46551;SDS011;32278;51.810;4.712;2024-01-10T10:34:01;15.63;;;8.13;;
46551;SDS011;32278;51.810;4.712;2024-01-10T10:36:27;15.27;;;8.57;;
46551;SDS011;32278;51.810;4.712;2024-01-10T10:38:53;18.98;;;8.77;;
46551;SDS011;32278;51.810;4.712;2024-01-10T10:41:19;19.98;;;9.07;;
46551;SDS011;32278;51.810;4.712;2024-01-10T10:43:46;14.75;;;8.80;;
46551;SDS011;32278;51.810;4.712;2024-01-10T10:46:13;13.68;;;8.50;;
46551;SDS011;32278;51.810;4.712;2024-01-10T10:48:39;16.33;;;9.18;;
46551;SDS011;32278;51.810;4.712;2024-01-10T10:51:10;14.50;;;7.55;;
46551;SDS011;32278;51.810;4.712;2024-01-10T10:53:37;18.45;;;8.90;;
46551;SDS011;32278;51.810;4.712;2024-01-10T10:56:04;18.60;;;9.40;;
46551;SDS011;32278;51.810;4.712;2024-01-10T10:58:34;17.30;;;9.00;;
46551;SDS011;32278;51.810;4.712;2024-01-10T11:01:07;18.50;;;9.02;;
46551;SDS011;32278;51.810;4.712;2024-01-10T11:03:34;17.92;;;9.30;;
46551;SDS011;32278;51.810;4.712;2024-01-10T11:06:01;17.33;;;9.40;;
46551;SDS011;32278;51.810;4.712;2024-01-10T11:08:28;18.42;;;9.70;;
46551;SDS011;32278;51.810;4.712;2024-01-10T11:10:56;16.35;;;9.57;;
46551;SDS011;32278;51.810;4.712;2024-01-10T11:13:42;16.38;;;9.50;;
46551;SDS011;32278;51.810;4.712;2024-01-10T11:24:03;20.00;;;10.10;;
46551;SDS011;32278;51.810;4.712;2024-01-10T11:26:29;17.60;;;9.25;;
46551;SDS011;32278;51.810;4.712;2024-01-10T11:28:56;14.02;;;9.82;;
46551;SDS011;32278;51.810;4.712;2024-01-10T11:31:29;19.50;;;10.23;;
46551;SDS011;32278;51.810;4.712;2024-01-10T11:33:56;17.38;;;9.35;;
46551;SDS011;32278;51.810;4.712;2024-01-10T11:36:22;17.27;;;9.80;;
46551;SDS011;32278;51.810;4.712;2024-01-10T11:41:25;20.63;;;10.50;;
46551;SDS011;32278;51.810;4.712;2024-01-10T11:46:48;16.45;;;9.68;;
46551;SDS011;32278;51.810;4.712;2024-01-10T11:49:15;18.52;;;10.07;;
46551;SDS011;32278;51.810;4.712;2024-01-10T11:51:52;23.00;;;10.85;;
46551;SDS011;32278;51.810;4.712;2024-01-10T11:54:35;18.77;;;10.23;;
46551;SDS011;32278;51.810;4.712;2024-01-10T11:57:01;18.15;;;9.45;;
46551;SDS011;32278;51.810;4.712;2024-01-10T11:59:27;16.95;;;10.02;;
46551;SDS011;32278;51.810;4.712;2024-01-10T12:01:55;17.38;;;10.30;;
46551;SDS011;32278;51.810;4.712;2024-01-10T12:04:21;18.58;;;10.30;;
46551;SDS011;32278;51.810;4.712;2024-01-10T12:06:47;20.63;;;10.55;;
46551;SDS011;32278;51.810;4.712;2024-01-10T12:09:14;19.33;;;10.52;;
46551;SDS011;32278;51.810;4.712;2024-01-10T12:11:41;16.42;;;8.40;;
46551;SDS011;32278;51.810;4.712;2024-01-10T12:14:08;17.63;;;9.55;;
46551;SDS011;32278;51.810;4.712;2024-01-10T12:16:34;21.50;;;11.63;;
46551;SDS011;32278;51.810;4.712;2024-01-10T12:19:00;16.15;;;10.48;;
46551;SDS011;32278;51.810;4.712;2024-01-10T12:21:26;16.02;;;9.95;;
46551;SDS011;32278;51.810;4.712;2024-01-10T12:23:52;21.80;;;9.13;;
46551;SDS011;32278;51.810;4.712;2024-01-10T12:26:18;17.88;;;9.75;;
46551;SDS011;32278;51.810;4.712;2024-01-10T12:28:57;16.58;;;10.02;;
46551;SDS011;32278;51.810;4.712;2024-01-10T12:31:24;16.48;;;9.18;;
46551;SDS011;32278;51.810;4.712;2024-01-10T12:33:52;21.30;;;10.57;;
46551;SDS011;32278;51.810;4.712;2024-01-10T12:36:18;15.45;;;9.10;;
46551;SDS011;32278;51.810;4.712;2024-01-10T12:38:45;18.67;;;11.05;;
46551;SDS011;32278;51.810;4.712;2024-01-10T12:41:11;22.58;;;10.45;;
46551;SDS011;32278;51.810;4.712;2024-01-10T12:43:37;20.55;;;10.80;;
46551;SDS011;32278;51.810;4.712;2024-01-10T12:46:04;16.70;;;10.30;;
46551;SDS011;32278;51.810;4.712;2024-01-10T12:48:30;20.58;;;10.43;;
46551;SDS011;32278;51.810;4.712;2024-01-10T12:50:56;17.38;;;9.65;;
46551;SDS011;32278;51.810;4.712;2024-01-10T12:53:25;21.08;;;9.80;;
46551;SDS011;32278;51.810;4.712;2024-01-10T12:55:51;19.77;;;9.02;;
46551;SDS011;32278;51.810;4.712;2024-01-10T12:58:17;23.25;;;10.05;;
46551;SDS011;32278;51.810;4.712;2024-01-10T13:00:44;18.08;;;11.05;;
46551;SDS011;32278;51.810;4.712;2024-01-10T13:03:10;19.08;;;9.38;;
46551;SDS011;32278;51.810;4.712;2024-01-10T13:05:37;18.35;;;9.43;;
46551;SDS011;32278;51.810;4.712;2024-01-10T13:08:03;21.10;;;9.82;;
46551;SDS011;32278;51.810;4.712;2024-01-10T13:10:30;18.67;;;10.18;;
46551;SDS011;32278;51.810;4.712;2024-01-10T13:12:56;18.02;;;11.18;;
46551;SDS011;32278;51.810;4.712;2024-01-10T13:15:22;20.58;;;10.20;;
46551;SDS011;32278;51.810;4.712;2024-01-10T13:17:48;17.35;;;9.80;;
46551;SDS011;32278;51.810;4.712;2024-01-10T13:20:14;15.57;;;8.77;;
46551;SDS011;32278;51.810;4.712;2024-01-10T13:22:40;17.30;;;9.63;;
46551;SDS011;32278;51.810;4.712;2024-01-10T13:25:06;21.52;;;10.27;;
46551;SDS011;32278;51.810;4.712;2024-01-10T13:27:32;17.20;;;9.73;;
46551;SDS011;32278;51.810;4.712;2024-01-10T13:29:58;20.52;;;10.57;;
46551;SDS011;32278;51.810;4.712;2024-01-10T13:32:24;18.25;;;9.10;;
46551;SDS011;32278;51.810;4.712;2024-01-10T13:34:50;18.60;;;9.18;;
46551;SDS011;32278;51.810;4.712;2024-01-10T13:37:16;18.02;;;10.38;;
46551;SDS011;32278;51.810;4.712;2024-01-10T13:39:42;17.70;;;9.35;;
46551;SDS011;32278;51.810;4.712;2024-01-10T13:42:08;22.70;;;9.75;;
46551;SDS011;32278;51.810;4.712;2024-01-10T13:44:37;19.55;;;10.55;;
46551;SDS011;32278;51.810;4.712;2024-01-10T13:47:03;21.83;;;9.98;;
46551;SDS011;32278;51.810;4.712;2024-01-10T13:49:30;19.80;;;10.30;;
46551;SDS011;32278;51.810;4.712;2024-01-10T13:51:56;19.75;;;10.82;;
46551;SDS011;32278;51.810;4.712;2024-01-10T13:54:22;21.25;;;10.50;;
46551;SDS011;32278;51.810;4.712;2024-01-10T13:56:48;18.85;;;10.45;;
46551;SDS011;32278;51.810;4.712;2024-01-10T13:59:14;18.38;;;9.85;;
46551;SDS011;32278;51.810;4.712;2024-01-10T14:01:40;17.42;;;9.50;;
46551;SDS011;32278;51.810;4.712;2024-01-10T14:04:06;17.38;;;10.32;;
46551;SDS011;32278;51.810;4.712;2024-01-10T14:06:32;22.98;;;11.15;;
46551;SDS011;32278;51.810;4.712;2024-01-10T14:08:58;18.85;;;10.93;;
46551;SDS011;32278;51.810;4.712;2024-01-10T14:11:24;16.65;;;10.20;;
46551;SDS011;32278;51.810;4.712;2024-01-10T14:13:52;20.98;;;10.57;;
46551;SDS011;32278;51.810;4.712;2024-01-10T14:16:19;19.50;;;10.10;;
46551;SDS011;32278;51.810;4.712;2024-01-10T14:18:45;18.25;;;9.38;;
46551;SDS011;32278;51.810;4.712;2024-01-10T14:21:12;20.58;;;10.10;;
46551;SDS011;32278;51.810;4.712;2024-01-10T14:23:38;19.35;;;11.00;;
46551;SDS011;32278;51.810;4.712;2024-01-10T14:26:04;21.58;;;9.55;;
46551;SDS011;32278;51.810;4.712;2024-01-10T14:28:30;19.40;;;9.70;;
46551;SDS011;32278;51.810;4.712;2024-01-10T14:30:57;18.25;;;9.75;;
46551;SDS011;32278;51.810;4.712;2024-01-10T14:33:25;21.33;;;10.68;;
46551;SDS011;32278;51.810;4.712;2024-01-10T14:35:51;17.23;;;9.23;;
46551;SDS011;32278;51.810;4.712;2024-01-10T14:38:17;19.90;;;9.73;;
46551;SDS011;32278;51.810;4.712;2024-01-10T14:40:43;21.08;;;10.07;;
46551;SDS011;32278;51.810;4.712;2024-01-10T14:43:09;18.85;;;10.18;;
46551;SDS011;32278;51.810;4.712;2024-01-10T14:45:35;18.90;;;9.57;;
46551;SDS011;32278;51.810;4.712;2024-01-10T14:48:01;18.85;;;9.98;;